Seaspan Chiwan — VRBH3 — position and weather

sailwx.info

Track history (hours):
 
Tides and Currents Weather Stations Pressure Air Temp Water Temp Dewpoint Dewpoint Depression Visibility Wind Speed Wind Dir Waves Ship Positions

Seaspan Chiwan

Last reported at 2016-May-03 17:28 UTC. Time now 2016-May-03 18:14 UTC.
Position N 44°12' W 125°00'.

Length 260 m; draft 9.8 m.

Type: Cargo ship. MMSI: 477014500.

Date/timePositionNaut miles runAvg speedWind from/ knotsBaromVisibWave heightAir tempDewpointWater temp
2016-May-03 17:28N 44°12' W 125°00'33114.5
2016-May-02 18:33N 38°45' W 123°49'1414.3
2016-May-02 17:33N 38°33' W 123°39'1515.4
2016-May-02 16:33N 38°20' W 123°29'1515.0
2016-May-02 15:33N 38°07' W 123°18'1514.7
2016-May-02 14:33N 37°57' W 123°05'1615.9
2016-May-02 13:33N 37°49' W 122°48'1312.7
2016-May-02 12:34N 37°48' W 122°32'10 9.8
2016-May-02 11:33N 37°48' W 122°19'0 0.1
2016-May-02 10:33N 37°48' W 122°19'0 0.0
2016-May-02 09:33N 37°48' W 122°19'0 0.0
2016-May-02 08:33N 37°48' W 122°19'0 0.0
2016-May-02 07:33N 37°48' W 122°19'0 0.0
2016-May-02 06:33N 37°48' W 122°19'0 0.0
2016-May-02 05:33N 37°48' W 122°19'0 0.1
2016-May-02 04:33N 37°48' W 122°19'0 0.0
2016-May-02 03:33N 37°48' W 122°19'0 0.0
2016-May-02 02:33N 37°48' W 122°19'0 0.0
2016-May-02 01:33N 37°48' W 122°19'0 0.0
2016-May-02 00:33N 37°48' W 122°19'0 0.0
2016-May-01 23:33N 37°48' W 122°19'0 0.0
2016-May-01 22:33N 37°48' W 122°19'0 0.0
2016-May-01 21:33N 37°48' W 122°19'0 0.0
2016-May-01 20:33N 37°48' W 122°19'0 0.0
2016-May-01 19:33N 37°48' W 122°19'0 0.0
2016-May-01 18:33N 37°48' W 122°19'0 0.0
2016-May-01 17:33N 37°48' W 122°19'0 0.0
2016-May-01 16:33N 37°48' W 122°19'0 0.0
2016-May-01 15:33N 37°48' W 122°19'1 0.7
2016-May-01 14:33N 37°48' W 122°18'9 8.8
2016-May-01 13:33N 37°49' W 122°29'1111.1
2016-May-01 12:34N 37°42' W 122°41'8 8.4
2016-May-01 11:34N 37°34' W 122°40'1110.8
2016-May-01 10:34N 37°23' W 122°40'1110.6
2016-May-01 09:34N 37°13' W 122°38'1110.8
2016-May-01 08:34N 37°03' W 122°33'1110.9
2016-May-01 07:34N 36°53' W 122°28'1110.9
2016-May-01 06:33N 36°42' W 122°24'1010.5
2016-May-01 05:34N 36°32' W 122°21'10 9.9
2016-May-01 04:34N 36°23' W 122°16'9 9.2
2016-May-01 03:34N 36°15' W 122°11'10 9.6
2016-May-01 02:34N 36°06' W 122°05'9 9.1
2016-May-01 01:34N 35°58' W 121°59'9 9.4
2016-May-01 00:34N 35°50' W 121°53'10 9.5
2016-Apr-30 23:34N 35°42' W 121°47'10 9.9
2016-Apr-30 22:34N 35°34' W 121°40'1010.1
2016-Apr-30 21:34N 35°26' W 121°33'1010.0
2016-Apr-30 20:33N 35°17' W 121°26'10 9.8
2016-Apr-30 19:34N 35°09' W 121°21'10 9.6
2016-Apr-30 18:34N 35°00' W 121°15'1010.2
2016-Apr-30 17:34N 34°51' W 121°10'1210.9
2016-Apr-30 16:29N 34°40' W 121°05'15210.9
2016-Apr-30 02:34N 33°41' W 118°15'2 2.4
2016-Apr-30 01:32N 33°44' W 118°15'0 0.0
2016-Apr-30 00:26N 33°44' W 118°15'0 0.0
2016-Apr-29 23:23N 33°44' W 118°15'0 0.0
2016-Apr-29 22:32N 33°44' W 118°15'0 0.0
2016-Apr-29 21:32N 33°44' W 118°15'0 0.0
2016-Apr-29 20:29N 33°44' W 118°15'0 0.0
2016-Apr-29 19:32N 33°44' W 118°15'0 0.0
2016-Apr-29 18:32N 33°44' W 118°15'0 0.0
2016-Apr-29 17:26N 33°44' W 118°15'0 0.0
2016-Apr-29 16:32N 33°44' W 118°15'0 0.0
2016-Apr-29 15:11N 33°44' W 118°15'0 0.0
2016-Apr-29 14:32N 33°44' W 118°15'0 0.0
2016-Apr-29 13:32N 33°44' W 118°15'0 0.0
2016-Apr-29 12:32N 33°44' W 118°15'5 4.8
2016-Apr-29 11:33N 33°39' W 118°13'9 8.5
2016-Apr-29 10:33N 33°32' W 118°09'1010.2
2016-Apr-29 09:33N 33°22' W 118°04'1111.2
2016-Apr-29 08:33N 33°12' W 117°60'1111.4
2016-Apr-29 07:33N 33°01' W 117°55'1413.9
2016-Apr-29 06:33N 32°48' W 117°50'1414.4
2016-Apr-29 05:33N 32°35' W 117°44'1514.6
2016-Apr-29 04:33N 32°20' W 117°40'  
Track history (hours):
 
Tides and Currents Weather Stations Pressure Air Temp Water Temp Dewpoint Dewpoint Depression Visibility Wind Speed Wind Dir Waves Ship Positions

Seaspan Chiwan

Last reported at 2016-May-03 17:28 UTC. Time now 2016-May-03 18:14 UTC.
Position N 44°12' W 125°00'.

Length 260 m; draft 9.8 m.

Type: Cargo ship. MMSI: 477014500.

Date/timePositionNaut miles runAvg speedWind from/ knotsBaromVisibWave heightAir tempDewpointWater temp
2016-May-03 17:28N 44°12' W 125°00'33114.5
2016-May-02 18:33N 38°45' W 123°49'1414.3
2016-May-02 17:33N 38°33' W 123°39'1515.4
2016-May-02 16:33N 38°20' W 123°29'1515.0
2016-May-02 15:33N 38°07' W 123°18'1514.7
2016-May-02 14:33N 37°57' W 123°05'1615.9
2016-May-02 13:33N 37°49' W 122°48'1312.7
2016-May-02 12:34N 37°48' W 122°32'10 9.8
2016-May-02 11:33N 37°48' W 122°19'0 0.1
2016-May-02 10:33N 37°48' W 122°19'0 0.0
2016-May-02 09:33N 37°48' W 122°19'0 0.0
2016-May-02 08:33N 37°48' W 122°19'0 0.0
2016-May-02 07:33N 37°48' W 122°19'0 0.0
2016-May-02 06:33N 37°48' W 122°19'0 0.0
2016-May-02 05:33N 37°48' W 122°19'0 0.1
2016-May-02 04:33N 37°48' W 122°19'0 0.0
2016-May-02 03:33N 37°48' W 122°19'0 0.0
2016-May-02 02:33N 37°48' W 122°19'0 0.0
2016-May-02 01:33N 37°48' W 122°19'0 0.0
2016-May-02 00:33N 37°48' W 122°19'0 0.0
2016-May-01 23:33N 37°48' W 122°19'0 0.0
2016-May-01 22:33N 37°48' W 122°19'0 0.0
2016-May-01 21:33N 37°48' W 122°19'0 0.0
2016-May-01 20:33N 37°48' W 122°19'0 0.0
2016-May-01 19:33N 37°48' W 122°19'0 0.0
2016-May-01 18:33N 37°48' W 122°19'0 0.0
2016-May-01 17:33N 37°48' W 122°19'0 0.0
2016-May-01 16:33N 37°48' W 122°19'0 0.0
2016-May-01 15:33N 37°48' W 122°19'1 0.7
2016-May-01 14:33N 37°48' W 122°18'9 8.8
2016-May-01 13:33N 37°49' W 122°29'1111.1
2016-May-01 12:34N 37°42' W 122°41'8 8.4
2016-May-01 11:34N 37°34' W 122°40'1110.8
2016-May-01 10:34N 37°23' W 122°40'1110.6
2016-May-01 09:34N 37°13' W 122°38'1110.8
2016-May-01 08:34N 37°03' W 122°33'1110.9
2016-May-01 07:34N 36°53' W 122°28'1110.9
2016-May-01 06:33N 36°42' W 122°24'1010.5
2016-May-01 05:34N 36°32' W 122°21'10 9.9
2016-May-01 04:34N 36°23' W 122°16'9 9.2
2016-May-01 03:34N 36°15' W 122°11'10 9.6
2016-May-01 02:34N 36°06' W 122°05'9 9.1
2016-May-01 01:34N 35°58' W 121°59'9 9.4
2016-May-01 00:34N 35°50' W 121°53'10 9.5
2016-Apr-30 23:34N 35°42' W 121°47'10 9.9
2016-Apr-30 22:34N 35°34' W 121°40'1010.1
2016-Apr-30 21:34N 35°26' W 121°33'1010.0
2016-Apr-30 20:33N 35°17' W 121°26'10 9.8
2016-Apr-30 19:34N 35°09' W 121°21'10 9.6
2016-Apr-30 18:34N 35°00' W 121°15'1010.2
2016-Apr-30 17:34N 34°51' W 121°10'1210.9
2016-Apr-30 16:29N 34°40' W 121°05'15210.9
2016-Apr-30 02:34N 33°41' W 118°15'2 2.4
2016-Apr-30 01:32N 33°44' W 118°15'0 0.0
2016-Apr-30 00:26N 33°44' W 118°15'0 0.0
2016-Apr-29 23:23N 33°44' W 118°15'0 0.0
2016-Apr-29 22:32N 33°44' W 118°15'0 0.0
2016-Apr-29 21:32N 33°44' W 118°15'0 0.0
2016-Apr-29 20:29N 33°44' W 118°15'0 0.0
2016-Apr-29 19:32N 33°44' W 118°15'0 0.0
2016-Apr-29 18:32N 33°44' W 118°15'0 0.0
2016-Apr-29 17:26N 33°44' W 118°15'0 0.0
2016-Apr-29 16:32N 33°44' W 118°15'0 0.0
2016-Apr-29 15:11N 33°44' W 118°15'0 0.0
2016-Apr-29 14:32N 33°44' W 118°15'0 0.0
2016-Apr-29 13:32N 33°44' W 118°15'0 0.0
2016-Apr-29 12:32N 33°44' W 118°15'5 4.8
2016-Apr-29 11:33N 33°39' W 118°13'9 8.5
2016-Apr-29 10:33N 33°32' W 118°09'1010.2
2016-Apr-29 09:33N 33°22' W 118°04'1111.2
2016-Apr-29 08:33N 33°12' W 117°60'1111.4
2016-Apr-29 07:33N 33°01' W 117°55'1413.9
2016-Apr-29 06:33N 32°48' W 117°50'1414.4
2016-Apr-29 05:33N 32°35' W 117°44'1514.6
2016-Apr-29 04:33N 32°20' W 117°40'  

Dump ship's entire track history